Time;durP1;ratioP1;P1;durP2;ratioP2;P2;SDS_P1;SDS_P2;PMS_P1;PMS_P2;Temp;Humidity;BMP_temperature;BMP_pressure;BME280_temperature;BME280_humidity;BME280_pressure;Samples;Min_cycle;Max_cycle;Signal;HPM_P1;HPM_P2
2024/01/25 00:01:37;;;;;;;;;;;12.50;49.90;;;12.70;52.45;101675.66;5033260;28;19929;-37
2024/01/25 00:04:05;;;;;;;;;;;12.50;49.70;;;12.70;52.69;101670.63;5050800;28;19990;-37
2024/01/25 00:06:34;;;;;;;;;;;12.50;49.70;;;12.71;52.14;101671.53;5052814;28;19925;-36
2024/01/25 00:09:04;;;;;;;;;;;12.50;49.70;;;12.73;52.18;101681.09;5044628;28;19948;-36
2024/01/25 00:11:35;;;;;;;;;;;12.50;49.70;;;12.73;52.14;101685.22;5048577;28;19976;-36
2024/01/25 00:14:03;;;;;;;;;;;12.60;49.70;;;12.67;52.34;101665.16;5050028;28;19931;-35
2024/01/25 00:16:31;;;;;;;;;;;12.60;49.70;;;12.75;51.73;101673.75;5048350;28;20184;-37
2024/01/25 00:18:59;;;;;;;;;;;12.60;49.60;;;12.77;52.34;101673.25;5049502;28;19948;-37
2024/01/25 00:21:27;;;;;;;;;;;12.60;49.60;;;12.78;51.76;101669.13;5029026;28;19925;-37
2024/01/25 00:23:56;;;;;;;;;;;12.60;49.50;;;12.79;51.95;101674.38;5036392;28;19925;-38
2024/01/25 00:26:24;;;;;;;;;;;12.60;49.50;;;12.82;52.52;101672.31;5052457;28;20042;-37
2024/01/25 00:28:52;;;;;;;;;;;12.60;49.50;;;12.83;52.62;101669.09;5053152;28;20019;-37
2024/01/25 00:31:20;;;;;;;;;;;12.60;49.50;;;12.85;52.10;101672.72;5052507;28;19933;-35
2024/01/25 00:33:48;;;;;;;;;;;12.60;49.40;;;12.88;52.41;101673.16;5052214;28;20363;-35
2024/01/25 00:36:17;;;;;;;;;;;12.70;49.50;;;12.92;51.89;101684.53;5033395;28;19925;-35
2024/01/25 00:38:46;;;;;;;;;;;12.70;49.50;;;12.94;51.91;101687.25;5032750;28;19985;-35
2024/01/25 00:41:16;;;;;;;;;;;12.70;49.40;;;12.94;51.64;101694.81;5042583;28;19925;-36
2024/01/25 00:43:45;;;;;;;;;;;12.70;49.40;;;12.95;51.42;101682.44;5046158;28;19925;-35
2024/01/25 00:46:13;;;;;;;;;;;12.70;49.30;;;12.97;51.83;101692.69;5042234;28;19925;-36
2024/01/25 00:48:42;;;;;;;;;;;12.70;49.40;;;12.98;51.42;101685.34;5052364;28;19929;-36
2024/01/25 00:51:15;;;;;;;;;;;12.70;49.30;;;12.92;51.76;101678.59;5044098;28;19971;-36
2024/01/25 00:53:43;;;;;;;;;;;12.70;49.30;;;12.99;51.73;101696.34;5051486;28;19972;-35
2024/01/25 00:56:12;;;;;;;;;;;12.70;49.30;;;13.00;51.38;101688.09;5050954;28;19932;-36
2024/01/25 00:58:42;;;;;;;;;;;12.70;49.30;;;12.97;51.60;101685.13;5037118;28;19983;-36
2024/01/25 01:01:11;;;;;;;;;;;12.70;49.30;;;12.98;51.88;101674.38;5052648;28;19964;-37
2024/01/25 01:03:40;;;;;;;;;;;12.70;49.30;;;12.96;51.96;101686.78;5052089;28;19929;-37
2024/01/25 01:06:09;;;;;;;;;;;12.70;49.30;;;12.95;52.04;101699.13;5051186;28;20024;-36
2024/01/25 01:08:38;;;;;;;;;;;12.70;49.30;;;12.95;51.37;101707.59;5037317;28;19947;-37
2024/01/25 01:11:06;;;;;;;;;;;12.70;49.30;;;12.94;51.87;101702.34;5052329;28;19972;-36
2024/01/25 01:13:34;;;;;;;;;;;12.70;49.30;;;12.93;51.52;101710.59;5051735;28;20316;-36
2024/01/25 01:16:04;;;;;;;;;;;12.70;49.40;;;12.90;51.51;101709.47;5043927;28;19924;-35
2024/01/25 01:18:32;;;;;;;;;;;12.70;49.40;;;12.89;52.52;101725.28;5028660;28;20415;-37
2024/01/25 01:21:00;;;;;;;;;;;12.70;49.40;;;12.87;52.03;101720.72;5052206;28;20009;-36
2024/01/25 01:23:28;;;;;;;;;;;12.70;49.50;;;12.86;51.57;101719.81;5035570;28;20389;-36
2024/01/25 01:25:56;;;;;;;;;;;12.60;49.40;;;12.84;52.20;101720.28;5043836;28;19987;-36
2024/01/25 01:28:24;;;;;;;;;;;12.60;49.40;;;12.79;51.75;101721.25;5040900;28;19952;-36
2024/01/25 01:30:52;;;;;;;;;;;12.60;49.50;;;12.81;52.39;101714.84;5047509;28;19979;-36
2024/01/25 01:33:22;;;;;;;;;;;12.60;49.50;;;12.80;51.89;101725.59;5035289;28;19929;-36
2024/01/25 01:35:50;;;;;;;;;;;12.60;49.50;;;12.78;51.98;101722.88;5044332;28;19932;-36
2024/01/25 01:38:18;;;;;;;;;;;12.60;49.60;;;12.76;52.08;101726.81;5044137;28;20036;-37
2024/01/25 01:40:46;;;;;;;;;;;12.60;49.60;;;12.76;51.80;101731.81;5044475;22;19980;-36
2024/01/25 01:43:19;;;;;;;;;;;12.60;49.60;;;12.74;52.37;101733.22;5030876;28;20403;-36
2024/01/25 01:45:47;;;;;;;;;;;12.60;49.70;;;12.73;52.51;101736.41;5031443;28;19937;-35
2024/01/25 01:48:15;;;;;;;;;;;12.60;49.70;;;12.73;52.71;101731.38;5031651;28;19925;-36
2024/01/25 01:50:45;;;;;;;;;;;12.50;49.70;;;12.72;53.00;101742.13;5031452;28;20427;-35
2024/01/25 01:53:13;;;;;;;;;;;12.50;49.70;;;12.71;52.38;101742.81;5030717;28;19925;-36
2024/01/25 01:55:41;;;;;;;;;;;12.50;49.70;;;12.72;53.02;101739.63;5031397;28;19925;-35
2024/01/25 01:58:09;;;;;;;;;;;12.50;49.70;;;12.70;52.51;101720.00;5031098;28;19940;-36
2024/01/25 02:00:37;;;;;;;;;;;12.50;49.80;;;12.69;52.48;101721.63;5031399;28;19925;-36
2024/01/25 02:03:06;;;;;;;;;;;12.50;49.70;;;12.70;51.94;101725.03;5031022;28;20365;-35
2024/01/25 02:05:34;;;;;;;;;;;12.50;49.70;;;12.70;51.43;101720.91;5031495;28;19972;-35
2024/01/25 02:08:03;;;;;;;;;;;12.50;49.70;;;12.70;52.09;101720.91;5031084;28;19925;-36
2024/01/25 02:10:31;;;;;;;;;;;12.50;49.70;;;12.70;52.71;101720.91;5031531;28;20356;-36
2024/01/25 02:12:59;;;;;;;;;;;12.50;49.80;;;12.72;52.51;101734.59;5034263;28;20425;-36
2024/01/25 02:15:27;;;;;;;;;;;12.50;49.70;;;12.73;52.41;101731.38;5034744;28;19925;-36
2024/01/25 02:17:55;;;;;;;;;;;12.50;49.70;;;12.73;51.70;101726.34;5034628;28;19979;-36
2024/01/25 02:20:23;;;;;;;;;;;12.50;49.60;;;12.74;51.42;101733.22;5034626;28;19980;-37
2024/01/25 02:22:53;;;;;;;;;;;12.60;49.70;;;12.78;51.87;101742.06;5034140;28;19932;-37
2024/01/25 02:25:21;;;;;;;;;;;12.60;49.60;;;12.78;52.45;101740.47;5034322;28;19979;-35
2024/01/25 02:27:49;;;;;;;;;;;12.60;49.60;;;12.80;51.91;101756.69;5034778;28;20351;-35
2024/01/25 02:30:17;;;;;;;;;;;12.60;49.60;;;12.79;51.91;101762.41;5034345;28;19925;-35
2024/01/25 02:32:45;;;;;;;;;;;12.60;49.50;;;12.82;51.94;101756.91;5034087;28;19925;-36
2024/01/25 02:35:13;;;;;;;;;;;12.60;49.50;;;12.83;52.27;101759.66;5034361;28;19926;-36
2024/01/25 02:37:41;;;;;;;;;;;12.60;49.40;;;12.83;51.70;101772.22;5034508;28;19925;-36
2024/01/25 02:40:12;;;;;;;;;;;12.60;49.40;;;12.86;51.59;101774.25;5031736;28;19925;-36
2024/01/25 02:42:40;;;;;;;;;;;12.60;49.40;;;12.88;52.06;101773.75;5034025;28;19929;-36
2024/01/25 02:45:09;;;;;;;;;;;12.60;49.40;;;12.90;51.39;101777.38;5034160;28;19925;-36
2024/01/25 02:47:36;;;;;;;;;;;12.70;49.40;;;12.92;51.75;101771.66;5034746;28;19979;-36
2024/01/25 02:50:06;;;;;;;;;;;12.70;49.40;;;12.92;51.50;101774.16;5034131;28;20340;-36
2024/01/25 02:52:34;;;;;;;;;;;12.70;49.40;;;12.93;51.85;101781.03;5033900;28;19932;-36
2024/01/25 02:55:02;;;;;;;;;;;12.70;49.40;;;12.93;51.82;101781.03;5033877;28;20343;-36
2024/01/25 02:57:32;;;;;;;;;;;12.70;49.40;;;12.95;51.80;101784.69;5033862;28;20385;-36
2024/01/25 03:00:00;;;;;;;;;;;12.70;49.40;;;12.93;51.73;101786.06;5034088;28;19925;-36
2024/01/25 03:02:28;;;;;;;;;;;12.70;49.40;;;12.93;51.82;101792.00;5034275;28;20200;-35
2024/01/25 03:04:56;;;;;;;;;;;12.70;49.30;;;12.91;51.97;101793.38;5034127;28;19932;-36
2024/01/25 03:07:24;;;;;;;;;;;12.70;49.30;;;12.92;52.00;101789.25;5034158;28;20066;-36
2024/01/25 03:09:52;;;;;;;;;;;12.70;49.30;;;12.90;52.04;101797.50;5033789;28;20326;-36
2024/01/25 03:12:20;;;;;;;;;;;12.70;49.40;;;12.90;52.33;101802.53;5033326;28;19932;-37
2024/01/25 03:14:50;;;;;;;;;;;12.70;49.40;;;12.84;52.09;101799.16;5034221;28;19973;-36
2024/01/25 03:17:18;;;;;;;;;;;12.60;49.30;;;12.84;51.98;101805.81;5033591;28;20468;-36
2024/01/25 03:19:47;;;;;;;;;;;12.60;49.40;;;12.83;52.65;101815.00;5033563;28;20399;-36
2024/01/25 03:22:15;;;;;;;;;;;12.60;49.40;;;12.83;51.82;101809.03;5032850;28;19929;-36
2024/01/25 03:24:43;;;;;;;;;;;12.60;49.40;;;12.81;52.50;101806.31;5033435;28;19928;-36
2024/01/25 03:27:13;;;;;;;;;;;12.60;49.50;;;12.79;52.16;101817.75;5033742;28;20411;-36
2024/01/25 03:29:42;;;;;;;;;;;12.60;49.50;;;12.78;52.22;101810.91;5033375;28;19925;-36
2024/01/25 03:32:12;;;;;;;;;;;12.60;49.80;;;12.77;51.78;101808.19;5032874;28;19925;-36
2024/01/25 03:34:40;;;;;;;;;;;12.60;49.50;;;12.74;51.87;101801.13;5033518;28;19929;-36
2024/01/25 03:37:08;;;;;;;;;;;12.60;49.60;;;12.73;52.21;101801.81;5033330;28;20376;-36
2024/01/25 03:39:36;;;;;;;;;;;12.50;49.50;;;12.72;52.39;101797.47;5025037;28;19929;-36
2024/01/25 03:42:04;;;;;;;;;;;12.50;49.50;;;12.72;52.14;101810.03;5032628;28;20017;-36
2024/01/25 03:44:32;;;;;;;;;;;12.50;49.60;;;12.66;52.29;101809.19;5032849;28;19929;-36
2024/01/25 03:47:00;;;;;;;;;;;12.50;49.60;;;12.70;52.36;101811.47;5033576;28;19932;-36
2024/01/25 03:49:29;;;;;;;;;;;12.50;49.60;;;12.70;52.33;101805.50;5032731;28;20015;-36
2024/01/25 03:51:57;;;;;;;;;;;12.50;49.60;;;12.68;52.77;101812.84;5032354;28;20396;-36
2024/01/25 03:54:25;;;;;;;;;;;12.50;49.60;;;12.66;52.69;101806.66;5032654;28;19925;-36
2024/01/25 03:56:53;;;;;;;;;;;12.50;49.70;;;12.65;52.68;101812.38;5032734;28;19972;-36
2024/01/25 03:59:21;;;;;;;;;;;12.50;49.70;;;12.64;52.31;101815.63;5032829;28;19925;-36
2024/01/25 04:01:49;;;;;;;;;;;12.50;49.70;;;12.65;52.65;101816.50;5032578;28;19925;-37
2024/01/25 04:04:17;;;;;;;;;;;12.50;49.70;;;12.63;52.63;101827.97;5032434;28;20467;-36
2024/01/25 04:06:47;;;;;;;;;;;12.50;49.70;;;12.63;52.54;101823.84;5032859;28;19925;-36
2024/01/25 04:09:16;;;;;;;;;;;12.50;49.70;;;12.63;52.34;101836.44;5032340;28;20292;-36
2024/01/25 04:11:44;;;;;;;;;;;12.50;49.70;;;12.64;52.67;101834.81;5032452;28;19994;-36
2024/01/25 04:14:12;;;;;;;;;;;12.50;49.70;;;12.65;52.67;101842.56;5032655;28;19925;-36
2024/01/25 04:16:40;;;;;;;;;;;12.50;49.70;;;12.64;52.30;101838.25;5024744;28;20024;-36
2024/01/25 04:19:12;;;;;;;;;;;12.50;49.70;;;12.59;52.39;101836.69;5032261;28;19995;-36
2024/01/25 04:21:40;;;;;;;;;;;12.50;49.70;;;12.65;52.57;101842.56;5032608;28;19933;-36
2024/01/25 04:24:09;;;;;;;;;;;12.50;49.60;;;12.69;52.53;101839.81;5032218;28;19972;-36
2024/01/25 04:26:37;;;;;;;;;;;12.50;49.60;;;12.69;52.47;101844.84;5032691;28;19952;-36
2024/01/25 04:29:06;;;;;;;;;;;12.50;49.60;;;12.72;52.42;101840.22;5032396;28;19932;-36
2024/01/25 04:31:34;;;;;;;;;;;12.50;49.60;;;12.72;52.32;101830.16;5032248;28;19940;-37
2024/01/25 04:34:02;;;;;;;;;;;12.50;49.60;;;12.73;52.11;101831.97;5031238;28;19925;-36
2024/01/25 04:36:30;;;;;;;;;;;12.50;49.50;;;12.76;52.35;101837.47;5032016;28;19971;-36
2024/01/25 04:38:58;;;;;;;;;;;12.50;49.50;;;12.77;52.17;101839.25;5032276;28;19925;-35
2024/01/25 04:41:27;;;;;;;;;;;12.60;49.50;;;12.78;51.49;101836.03;5032438;28;19925;-36
2024/01/25 04:43:55;;;;;;;;;;;12.60;49.50;;;12.81;52.28;101851.59;5031699;28;19925;-36
2024/01/25 04:46:23;;;;;;;;;;;12.60;49.50;;;12.82;51.73;101853.41;5031924;28;19925;-36
2024/01/25 04:48:51;;;;;;;;;;;12.60;49.40;;;12.84;51.63;101854.50;5032319;28;19925;-36
2024/01/25 04:51:20;;;;;;;;;;;12.60;49.30;;;12.84;51.57;101857.03;5031913;28;19925;-36
2024/01/25 04:53:48;;;;;;;;;;;12.60;49.40;;;12.86;52.16;101860.69;5031423;28;19932;-36
2024/01/25 04:56:17;;;;;;;;;;;12.60;49.30;;;12.86;51.62;101860.69;5031717;28;19929;-36
2024/01/25 04:58:46;;;;;;;;;;;12.60;49.30;;;12.85;51.73;101858.84;5031792;28;19976;-36
2024/01/25 05:01:14;;;;;;;;;;;12.60;49.30;;;12.86;51.32;101862.28;5031623;28;20361;-37
2024/01/25 05:03:42;;;;;;;;;;;12.60;49.30;;;12.85;52.19;101858.84;5023567;28;19968;-36
2024/01/25 05:06:11;;;;;;;;;;;12.60;49.30;;;12.85;51.07;101863.88;5031676;28;20360;-36
2024/01/25 05:08:39;;;;;;;;;;;12.60;49.20;;;12.86;51.80;101865.72;5031538;28;19932;-36
2024/01/25 05:11:08;;;;;;;;;;;12.60;49.20;;;12.84;51.61;101862.06;5031751;28;19925;-36
2024/01/25 05:13:36;;;;;;;;;;;12.60;49.30;;;12.83;51.15;101870.31;5031218;28;20025;-36
2024/01/25 05:16:06;;;;;;;;;;;12.60;49.30;;;12.83;51.88;101880.38;5031388;28;19929;-37
2024/01/25 05:18:34;;;;;;;;;;;12.60;49.30;;;12.82;51.99;101881.06;5031721;28;19925;-36
2024/01/25 05:21:02;;;;;;;;;;;12.60;49.40;;;12.80;51.49;101879.94;5031643;28;20436;-36
2024/01/25 05:23:30;;;;;;;;;;;12.60;49.40;;;12.78;51.25;101881.31;5031052;28;19926;-36
2024/01/25 05:25:58;;;;;;;;;;;12.60;49.40;;;12.77;51.61;101879.50;5031611;28;19935;-36
2024/01/25 05:28:26;;;;;;;;;;;12.60;49.40;;;12.75;52.29;101880.91;5031148;28;19925;-36
2024/01/25 05:30:54;;;;;;;;;;;12.60;49.40;;;12.74;51.32;101879.06;5031642;28;19925;-36
2024/01/25 05:33:23;;;;;;;;;;;12.50;49.40;;;12.72;52.19;101875.44;5030840;28;19925;-36
2024/01/25 05:35:51;;;;;;;;;;;12.50;49.40;;;12.71;52.42;101872.72;5031590;28;19925;-36
2024/01/25 05:38:19;;;;;;;;;;;12.50;49.40;;;12.69;52.06;101867.47;5031466;28;20351;-36
2024/01/25 05:40:47;;;;;;;;;;;12.50;49.50;;;12.68;52.22;101868.16;5032093;28;19925;-36
2024/01/25 05:43:15;;;;;;;;;;;12.50;49.50;;;12.66;51.66;101859.47;5031397;28;20007;-36
2024/01/25 05:45:43;;;;;;;;;;;12.50;49.50;;;12.65;51.79;101867.72;5025951;28;19933;-36
2024/01/25 05:48:11;;;;;;;;;;;12.50;49.60;;;12.66;52.42;101864.50;5035337;28;19960;-36
2024/01/25 05:50:41;;;;;;;;;;;12.50;49.60;;;12.62;52.68;101867.28;5035035;28;19929;-36
2024/01/25 05:53:09;;;;;;;;;;;12.50;49.60;;;12.62;52.47;101877.34;5034641;28;19932;-36
2024/01/25 05:55:37;;;;;;;;;;;12.50;49.60;;;12.61;51.54;101875.53;5034645;28;20012;-36
2024/01/25 05:58:05;;;;;;;;;;;12.50;49.60;;;12.59;52.13;101881.94;5035225;28;19925;-36
2024/01/25 06:00:33;;;;;;;;;;;12.50;49.60;;;12.60;52.43;101888.78;5035074;28;19925;-36
2024/01/25 06:03:01;;;;;;;;;;;12.40;49.50;;;12.59;52.10;101879.41;5034414;28;19983;-36
2024/01/25 06:05:29;;;;;;;;;;;12.40;49.60;;;12.58;52.58;101880.13;5034519;28;20270;-37
2024/01/25 06:07:59;;;;;;;;;;;12.40;49.60;;;12.56;51.53;101884.03;5034841;28;19971;-36
2024/01/25 06:10:27;;;;;;;;;;;12.40;49.60;;;12.57;53.01;101874.88;5034905;28;20420;-36
2024/01/25 06:12:55;;;;;;;;;;;12.40;49.60;;;12.57;52.12;101883.34;5034468;28;19925;-36
2024/01/25 06:15:23;;;;;;;;;;;12.40;49.60;;;12.56;52.21;101886.53;5034571;28;19925;-36
2024/01/25 06:17:51;;;;;;;;;;;12.40;49.60;;;12.57;52.03;101883.34;5034481;28;20448;-36
2024/01/25 06:20:19;;;;;;;;;;;12.40;49.60;;;12.57;52.40;101883.34;5034815;28;19944;-36
2024/01/25 06:22:47;;;;;;;;;;;12.40;49.60;;;12.59;52.67;101881.03;5033904;28;19929;-36
2024/01/25 06:25:16;;;;;;;;;;;12.40;49.60;;;12.58;52.18;101870.09;5034377;28;20293;-36
2024/01/25 06:27:44;;;;;;;;;;;12.40;49.50;;;12.61;52.52;101880.56;5034370;28;19925;-36
2024/01/25 06:30:13;;;;;;;;;;;12.40;49.50;;;12.62;52.25;101884.91;5034211;28;19931;-36
2024/01/25 06:32:41;;;;;;;;;;;12.40;49.50;;;12.63;52.59;101883.28;5033725;28;19925;-35
2024/01/25 06:35:10;;;;;;;;;;;12.40;49.50;;;12.65;52.36;101887.81;5033967;28;19951;-36
2024/01/25 06:37:38;;;;;;;;;;;12.50;49.50;;;12.67;52.27;101891.47;5034159;28;19929;-36
2024/01/25 06:40:07;;;;;;;;;;;12.40;49.40;;;12.67;51.85;101901.53;5029655;28;19925;-36
2024/01/25 06:42:37;;;;;;;;;;;12.50;49.40;;;12.69;52.34;101894.22;5033324;28;19932;-36
2024/01/25 06:45:05;;;;;;;;;;;12.50;49.50;;;12.70;51.24;101896.97;5034475;28;19925;-36
2024/01/25 06:47:33;;;;;;;;;;;12.50;49.40;;;12.72;51.69;101893.03;5033723;28;19936;-36
2024/01/25 06:50:01;;;;;;;;;;;12.50;50.00;;;12.74;52.07;101898.28;5033851;28;20368;-36
2024/01/25 06:52:29;;;;;;;;;;;12.50;49.30;;;12.74;51.61;101896.69;5033327;28;19990;-36
2024/01/25 06:54:58;;;;;;;;;;;12.50;49.30;;;12.74;52.19;101894.16;5033884;28;19994;-35
2024/01/25 06:57:26;;;;;;;;;;;12.50;49.30;;;12.77;51.47;101909.66;5033463;28;19929;-36
2024/01/25 06:59:55;;;;;;;;;;;12.50;49.30;;;12.78;51.61;101908.97;5033705;28;19931;-36
2024/01/25 07:02:23;;;;;;;;;;;12.50;49.20;;;12.73;52.08;101907.44;5032933;28;19925;-36
2024/01/25 07:04:53;;;;;;;;;;;12.60;49.30;;;12.80;51.60;101911.72;5033685;28;20377;-36
2024/01/25 07:07:22;;;;;;;;;;;12.60;49.30;;;12.78;51.29;101920.66;5033473;28;19925;-36
2024/01/25 07:09:50;;;;;;;;;;;12.50;49.20;;;12.79;51.47;101933.44;5033448;28;19939;-37
2024/01/25 07:12:18;;;;;;;;;;;12.60;49.20;;;12.78;51.50;101926.59;5032997;28;20393;-36
2024/01/25 07:14:46;;;;;;;;;;;12.60;49.20;;;12.77;51.97;101928.91;5033122;28;20031;-36
2024/01/25 07:17:16;;;;;;;;;;;12.60;49.20;;;12.74;52.21;101919.31;5033661;28;19948;-36
2024/01/25 07:19:43;;;;;;;;;;;12.60;49.20;;;12.75;51.45;101931.22;5033399;28;19925;-36
2024/01/25 07:22:13;;;;;;;;;;;12.50;49.20;;;12.73;52.02;101927.56;5032931;28;19932;-36
2024/01/25 07:24:42;;;;;;;;;;;12.50;49.30;;;12.72;51.79;101930.75;5033206;28;19925;-36
2024/01/25 07:27:10;;;;;;;;;;;12.50;49.30;;;12.71;51.83;101923.91;5033443;28;20016;-36
2024/01/25 07:29:38;;;;;;;;;;;12.50;49.30;;;12.70;51.56;101921.19;5033236;28;20332;-36
2024/01/25 07:32:07;;;;;;;;;;;12.50;49.30;;;12.67;52.59;101921.66;5033212;28;19932;-36
2024/01/25 07:34:36;;;;;;;;;;;12.50;49.30;;;12.67;52.01;101920.75;5032937;28;19971;-37
2024/01/25 07:37:05;;;;;;;;;;;12.50;49.40;;;12.65;52.04;101920.50;5033097;28;20402;-36
2024/01/25 07:39:33;;;;;;;;;;;12.50;49.40;;;12.63;51.82;101929.47;5032675;28;19925;-36
2024/01/25 07:42:01;;;;;;;;;;;12.50;49.50;;;12.52;51.93;101924.50;5048508;22;19979;-34
2024/01/25 07:44:28;;;;;;;;;;;12.50;49.40;;;12.61;51.66;101950.06;5033103;28;20007;-35
2024/01/25 07:46:56;;;;;;;;;;;12.40;49.40;;;12.59;52.10;101952.34;5033032;28;19926;-35
2024/01/25 07:49:24;;;;;;;;;;;12.40;49.40;;;12.58;52.27;101950.53;5032717;28;19931;-35
2024/01/25 07:51:56;;;;;;;;;;;12.40;49.40;;;12.57;52.43;101953.75;5032905;28;19932;-35
2024/01/25 07:54:25;;;;;;;;;;;12.40;49.40;;;12.56;51.83;101954.44;5016425;28;19930;-35
2024/01/25 07:56:53;;;;;;;;;;;12.40;49.50;;;12.56;52.87;101964.50;5021187;28;20012;-36
2024/01/25 07:59:21;;;;;;;;;;;12.40;49.50;;;12.54;51.79;101953.28;5028706;28;19979;-35
2024/01/25 08:01:49;;;;;;;;;;;12.40;49.50;;;12.54;52.28;101960.84;5023957;28;19925;-35
2024/01/25 08:04:17;;;;;;;;;;;12.40;49.60;;;12.53;51.92;101960.59;5017372;28;20399;-35
2024/01/25 08:06:45;;;;;;;;;;;12.40;49.50;;;12.53;51.67;101960.59;5015763;28;19940;-35
2024/01/25 08:09:14;;;;;;;;;;;12.40;49.60;;;12.52;51.95;101964.72;5017198;28;19925;-35
2024/01/25 08:11:42;;;;;;;;;;;12.40;49.60;;;12.52;52.20;101953.78;5016291;28;19925;-35
2024/01/25 08:14:10;;;;;;;;;;;12.40;49.60;;;12.52;52.82;101959.69;5024532;28;19925;-35
2024/01/25 08:16:38;;;;;;;;;;;12.40;49.60;;;12.52;52.01;101958.81;5030915;28;19986;-35
2024/01/25 08:19:07;;;;;;;;;;;12.40;49.60;;;12.52;52.15;101957.19;5021007;28;19932;-35
2024/01/25 08:21:36;;;;;;;;;;;12.40;49.60;;;12.53;52.45;101963.13;5030454;28;19932;-35
2024/01/25 08:24:05;;;;;;;;;;;12.40;49.60;;;12.54;51.97;101957.41;5014892;28;19976;-35
2024/01/25 08:26:34;;;;;;;;;;;12.40;49.60;;;12.55;51.84;101951.69;5031169;28;20016;-35
2024/01/25 08:29:02;;;;;;;;;;;12.40;49.60;;;12.55;51.88;101945.06;5014972;28;19975;-35
2024/01/25 08:31:30;;;;;;;;;;;12.40;49.50;;;12.56;52.23;101951.91;5022965;28;20031;-35
2024/01/25 08:33:58;;;;;;;;;;;12.40;49.50;;;12.56;52.27;101946.88;5022473;28;19956;-35
2024/01/25 08:36:27;;;;;;;;;;;12.40;49.50;;;12.61;52.42;101953.47;5030863;28;19925;-33
2024/01/25 08:38:55;;;;;;;;;;;12.40;49.50;;;12.55;52.29;101940.03;5022014;28;19972;-35
2024/01/25 08:41:23;;;;;;;;;;;12.40;49.50;;;12.66;52.25;101962.56;5017392;28;19926;-35
2024/01/25 08:43:53;;;;;;;;;;;12.50;49.50;;;12.68;51.17;101968.75;5019989;28;19925;-35
2024/01/25 08:46:21;;;;;;;;;;;12.50;49.50;;;12.70;52.69;101967.38;5027605;28;20360;-35
2024/01/25 08:48:49;;;;;;;;;;;12.50;49.40;;;12.71;52.57;101979.22;5023876;28;20296;-34
2024/01/25 08:51:17;;;;;;;;;;;12.50;49.40;;;12.72;52.06;101981.06;5024987;28;20482;-35
2024/01/25 08:53:45;;;;;;;;;;;12.50;49.30;;;12.73;52.03;101987.91;5019859;28;19965;-35
2024/01/25 08:56:13;;;;;;;;;;;12.50;49.30;;;12.75;51.77;101981.50;5012584;28;19929;-35
2024/01/25 08:58:42;;;;;;;;;;;12.50;49.30;;;12.79;51.62;101983.75;5022302;28;20209;-35
2024/01/25 09:01:12;;;;;;;;;;;12.60;49.30;;;12.78;52.24;101978.50;5023669;28;19964;-35
2024/01/25 09:03:40;;;;;;;;;;;12.60;49.40;;;12.80;51.94;101984.66;5023261;28;20316;-36
2024/01/25 09:06:09;;;;;;;;;;;12.60;49.30;;;12.80;51.38;101979.63;5023654;28;19932;-35
2024/01/25 09:08:37;;;;;;;;;;;12.60;49.30;;;12.80;52.18;101985.59;5031842;28;20403;-35
2024/01/25 09:11:05;;;;;;;;;;;12.60;49.30;;;12.80;51.44;101990.59;5018614;28;20293;-35
2024/01/25 09:13:33;;;;;;;;;;;12.60;49.30;;;12.80;51.78;101993.13;5020124;28;20012;-35
2024/01/25 09:16:15;;;;;;;;;;;12.60;49.30;;;12.80;51.86;101995.63;5018054;28;20452;-34
2024/01/25 09:18:43;;;;;;;;;;;12.60;49.30;;;12.77;51.76;101995.19;5030145;28;19929;-35
2024/01/25 09:21:11;;;;;;;;;;;12.60;49.40;;;12.77;51.82;102005.25;5020955;28;19933;-35
2024/01/25 09:23:40;;;;;;;;;;;12.60;49.40;;;12.71;52.25;101994.31;5016666;28;20020;-36
2024/01/25 09:26:08;;;;;;;;;;;12.50;49.30;;;12.76;52.32;102012.59;5027342;28;20017;-35
2024/01/25 09:28:36;;;;;;;;;;;12.50;49.40;;;12.74;52.18;102012.38;5026383;28;19925;-35
2024/01/25 09:31:05;;;;;;;;;;;12.50;49.40;;;12.11;51.53;101900.09;5024045;28;19973;-35
2024/01/25 09:33:36;;;;;;;;;;;12.50;49.50;;;12.71;52.53;102019.47;5023433;28;19940;-35
2024/01/25 09:36:04;;;;;;;;;;;12.50;49.50;;;12.69;51.96;102025.91;5020654;28;19925;-36
2024/01/25 09:38:33;;;;;;;;;;;12.50;49.50;;;12.68;52.49;102024.06;5019285;28;19925;-35
2024/01/25 09:41:02;;;;;;;;;;;12.50;49.50;;;12.67;52.19;102017.22;5026003;28;20277;-35
2024/01/25 09:43:31;;;;;;;;;;;12.50;49.60;;;12.65;52.13;102018.59;5026779;28;19971;-34
2024/01/25 09:45:59;;;;;;;;;;;12.50;49.60;;;12.53;52.31;102006.78;5024043;28;20004;-35
2024/01/25 09:48:28;;;;;;;;;;;12.40;49.50;;;12.64;52.41;102025.94;5031559;28;20012;-36
2024/01/25 09:50:57;;;;;;;;;;;12.40;49.50;;;12.45;52.12;101997.25;5031967;28;19991;-35
2024/01/25 09:53:25;;;;;;;;;;;12.40;49.50;;;12.62;52.34;102033.25;5023383;28;19925;-35
2024/01/25 09:55:58;;;;;;;;;;;12.40;49.60;;;12.54;52.46;102018.66;5015525;28;19949;-35
2024/01/25 09:58:26;;;;;;;;;;;12.40;49.60;;;12.30;52.44;101980.88;5023990;28;19929;-35
2024/01/25 10:00:55;;;;;;;;;;;12.40;49.60;;;12.59;52.80;102031.88;5027447;28;20277;-36
2024/01/25 10:03:23;;;;;;;;;;;12.40;49.60;;;12.58;52.27;102036.03;5034935;28;19931;-36
2024/01/25 10:05:51;;;;;;;;;;;12.40;49.60;;;12.58;52.53;102046.09;5015941;28;19937;-36
2024/01/25 10:08:23;;;;;;;;;;;12.40;49.60;;;12.55;52.11;102030.53;5015699;28;20301;-37
2024/01/25 10:10:53;;;;;;;;;;;12.40;49.60;;;12.58;52.88;102033.53;5026221;28;19925;-36
2024/01/25 10:13:21;;;;;;;;;;;12.40;49.60;;;12.58;51.80;102036.03;5028487;28;20016;-32
2024/01/25 10:15:49;;;;;;;;;;;12.40;49.60;;;12.58;52.45;102031.00;5015419;28;20345;-31
2024/01/25 10:18:19;;;;;;;;;;;12.40;49.60;;;12.58;52.63;102031.00;5024060;28;19937;-32
2024/01/25 10:20:56;;;;;;;;;;;12.40;49.70;;;12.58;52.64;102031.00;5024343;28;19937;-36
2024/01/25 10:23:26;;;;;;;;;;;12.40;49.60;;;12.57;52.15;102033.28;5023531;28;20016;-37
2024/01/25 10:25:55;;;;;;;;;;;12.40;49.60;;;12.60;51.97;102044.69;5034635;28;20024;-32
2024/01/25 10:28:24;;;;;;;;;;;12.40;49.60;;;12.61;52.28;102041.47;5020678;28;20312;-34
2024/01/25 10:30:56;;;;;;;;;;;12.40;49.60;;;12.60;52.44;102039.66;5015848;28;19937;-36
2024/01/25 10:33:24;;;;;;;;;;;12.40;49.60;;;12.64;52.48;102041.94;5024044;28;19932;-35
2024/01/25 10:35:53;;;;;;;;;;;12.50;49.70;;;12.68;51.86;102049.22;5018887;28;20296;-34
2024/01/25 10:38:21;;;;;;;;;;;12.50;49.60;;;12.67;52.30;102037.34;5030192;28;20012;-34
2024/01/25 10:40:51;;;;;;;;;;;12.50;49.50;;;12.68;52.38;102039.16;5031615;28;20372;-34
2024/01/25 10:43:19;;;;;;;;;;;12.50;49.50;;;12.72;51.15;102041.41;5021192;28;19956;-35
2024/01/25 10:45:47;;;;;;;;;;;12.50;49.40;;;12.70;51.30;102039.41;5031295;28;19944;-33
2024/01/25 10:48:15;;;;;;;;;;;12.50;49.40;;;12.76;51.81;102045.31;5021175;28;19932;-35
2024/01/25 10:50:45;;;;;;;;;;;12.50;49.40;;;12.77;51.39;102050.53;5032881;28;19929;-36
2024/01/25 10:53:13;;;;;;;;;;;12.50;49.30;;;12.80;51.85;102040.91;5025073;28;19926;-35
2024/01/25 10:55:41;;;;;;;;;;;12.50;49.30;;;12.80;51.07;102045.94;5033737;28;20348;-36
2024/01/25 10:58:13;;;;;;;;;;;12.60;49.30;;;12.80;51.06;102035.88;5035783;28;20405;-36
2024/01/25 11:00:41;;;;;;;;;;;12.60;49.30;;;12.80;51.84;102019.88;5016909;28;19926;-36
2024/01/25 11:03:10;;;;;;;;;;;12.60;49.30;;;12.83;51.19;102021.25;5013906;28;19926;-36
2024/01/25 11:05:38;;;;;;;;;;;12.60;49.30;;;12.81;51.24;102015.06;5022287;28;20299;-36
2024/01/25 11:08:06;;;;;;;;;;;12.60;49.20;;;12.81;51.46;102016.69;5018477;28;20284;-36
2024/01/25 11:10:37;;;;;;;;;;;12.60;49.30;;;12.83;51.71;102026.28;5024674;28;19933;-37
2024/01/25 11:13:05;;;;;;;;;;;12.60;49.30;;;12.83;51.67;102027.88;5031260;28;19953;-36
2024/01/25 11:15:35;;;;;;;;;;;12.60;49.30;;;12.80;51.66;102015.75;5014745;28;20373;-37